Terminal Aerodrome Forecast
Issued by NWS

Home | Current Version | Previous Version | Text Only | Print | Product List | Glossary On
Versions: 1 2 3 4 5 6 7 8 9 10 11 12 13 14 15 16 17 18 19 20 21 22 23 24 25
000
FTUS42 KJAX 170118 AAB
TAFVQQ
TAF AMD
KVQQ 170118Z 1701/1724 20004KT P6SM VCSH SCT030 BKN050
     FM170300 00000KT P6SM FEW250
     FM171500 25004KT P6SM SCT030 SCT250 PROB30 1717/1722 TSRA
      SCT035 BKN050CB=

USA.gov is the U.S. government's official web portal to all federal, state and local government web resources and services.